METAR Data
IDs: Format: Raw Decoded Include TAF

Data at: 0941 UTC 13 Aug 2022

METAR for:VTUV (Roi Et Arpt, 45, TH)
Text:VTUV 130900Z VRB05KT 9999 BKN030 32/24 Q1006 NOSIG
Temperature: 32.0°C ( 90°F)
Dewpoint: 24.0°C ( 75°F) [RH = 63%]
Pressure (altimeter):29.70 inches Hg (1006.0 mb)
Winds:variable direction winds at 6 MPH (5 knots; 2.6 m/s)
Visibility:6 or more sm (10+ km)
Ceiling:3000 feet AGL
Clouds: broken clouds at 3000 feet AGL